PWSweather.com
Personal Weather Stations
Station Observations
STWO1
East Side, Stillwater, OK 74075

East SideStillwater, OK 74075

Lat: 36.1242949, Lon: -97.044042

Elevation: 942

Station Type: Davis VP2

http://stillwaterweather.com

Latest ConditionsUpdated 4:50:01 PM CST Friday, Nov 17, 2017
Currently Today's Max Today's Min Today's Average
Temperature 79.2°F26.2°C 81.6°F27.6°C 58.7°F14.8°C 68.1°F20.1°C
Dew Point 56.0°F13.3°C 63.5°F17.5°C 54.5°F12.5°C 58.7°F14.8°C
Winds 2.3 mph S3.7 kmh S 10.4 mph SW16.7 kmh SW - 6.7 mph 10.8 kmh
Wind Gusts 6.9 mph11.1 kmh 19.6 mph31.5 kmh - -
Humidity 45% 93% 42% 75%
Pressure 29.52 in999.7 mb 29.93 in1013.5 mb 29.52 in999.7 mb -
Hour Temp Dew Point Humidity Winds Wind Gusts Pressure Precip Precip Rate Daily Precip Total
04:50 PM 79.2°F26.2°C 56.0°F13.3°C 45% 2.3 mph S3.7 kmh S 6.9 mph11.1 kmh 29.52 in999.7 mb - 0.00 in0.0 mm 0.00 in0.0 mm
04:40 PM 80.0°F26.7°C 56.1°F13.4°C 44% 1.2 mph S1.9 kmh S 3.5 mph5.6 kmh 29.53 in1000.0 mb - 0.00 in0.0 mm 0.00 in0.0 mm
04:30 PM 80.8°F27.1°C 56.2°F13.4°C 43% 3.5 mph SSW5.6 kmh SSW 4.6 mph7.4 kmh 29.53 in1000.0 mb - 0.00 in0.0 mm 0.00 in0.0 mm
04:20 PM 80.7°F27.1°C 57.4°F14.1°C 45% 2.3 mph SSW3.7 kmh SSW 3.5 mph5.6 kmh 29.53 in1000.0 mb - 0.00 in0.0 mm 0.00 in0.0 mm
04:10 PM 81.2°F27.3°C 57.2°F14.0°C 44% 2.3 mph S3.7 kmh S 4.6 mph7.4 kmh 29.54 in1000.3 mb - 0.00 in0.0 mm 0.00 in0.0 mm
04:00 PM 81.5°F27.5°C 56.8°F13.8°C 43% 6.9 mph SW11.1 kmh SW 13.8 mph22.2 kmh 29.54 in1000.3 mb - 0.00 in0.0 mm 0.00 in0.0 mm
03:50 PM 81.6°F27.6°C 56.3°F13.5°C 42% 6.9 mph SW11.1 kmh SW 11.5 mph18.5 kmh 29.54 in1000.3 mb - 0.00 in0.0 mm 0.00 in0.0 mm
03:40 PM 81.3°F27.4°C 56.7°F13.7°C 43% 3.5 mph SSW5.6 kmh SSW 6.9 mph11.1 kmh 29.54 in1000.3 mb - 0.00 in0.0 mm 0.00 in0.0 mm
03:30 PM 80.8°F27.1°C 57.5°F14.2°C 45% 5.8 mph SW9.3 kmh SW 11.5 mph18.5 kmh 29.54 in1000.3 mb - 0.00 in0.0 mm 0.00 in0.0 mm
03:20 PM 81.1°F27.3°C 58.9°F14.9°C 47% 4.6 mph SW7.4 kmh SW 11.5 mph18.5 kmh 29.54 in1000.3 mb - 0.00 in0.0 mm 0.00 in0.0 mm
03:10 PM 81.1°F27.3°C 58.4°F14.7°C 46% 5.8 mph SW9.3 kmh SW 9.2 mph14.8 kmh 29.54 in1000.3 mb - 0.00 in0.0 mm 0.00 in0.0 mm
03:00 PM 81.0°F27.2°C 58.3°F14.6°C 46% 6.9 mph SW11.1 kmh SW 11.5 mph18.5 kmh 29.54 in1000.3 mb - 0.00 in0.0 mm 0.00 in0.0 mm
02:50 PM 80.5°F26.9°C 58.4°F14.7°C 47% 4.6 mph SSW7.4 kmh SSW 8.1 mph13.0 kmh 29.55 in1000.7 mb - 0.00 in0.0 mm 0.00 in0.0 mm
02:40 PM 80.5°F26.9°C 57.8°F14.3°C 46% 5.8 mph SW9.3 kmh SW 13.8 mph22.2 kmh 29.55 in1000.7 mb - 0.00 in0.0 mm 0.00 in0.0 mm
02:30 PM 80.4°F26.9°C 59.4°F15.2°C 49% 4.6 mph SW7.4 kmh SW 6.9 mph11.1 kmh 29.55 in1000.7 mb - 0.00 in0.0 mm 0.00 in0.0 mm
02:20 PM 80.2°F26.8°C 59.3°F15.2°C 49% 10.4 mph SW16.7 kmh SW 16.1 mph25.9 kmh 29.56 in1001.0 mb - 0.00 in0.0 mm 0.00 in0.0 mm
02:10 PM 80.1°F26.7°C 59.2°F15.1°C 49% 6.9 mph SSW11.1 kmh SSW 11.5 mph18.5 kmh 29.57 in1001.4 mb - 0.00 in0.0 mm 0.00 in0.0 mm
02:00 PM 80.9°F27.2°C 59.4°F15.2°C 48% 8.1 mph SSW13.0 kmh SSW 12.7 mph20.4 kmh 29.57 in1001.4 mb - 0.00 in0.0 mm 0.00 in0.0 mm
01:50 PM 80.8°F27.1°C 59.3°F15.2°C 48% 4.6 mph SSW7.4 kmh SSW 5.8 mph9.3 kmh 29.57 in1001.4 mb - 0.00 in0.0 mm 0.00 in0.0 mm
01:40 PM 80.2°F26.8°C 59.9°F15.5°C 50% 6.9 mph SSW11.1 kmh SSW 11.5 mph18.5 kmh 29.57 in1001.4 mb - 0.00 in0.0 mm 0.00 in0.0 mm
01:30 PM 80.5°F26.9°C 60.1°F15.6°C 50% 6.9 mph SSW11.1 kmh SSW 10.4 mph16.7 kmh 29.57 in1001.4 mb - 0.00 in0.0 mm 0.00 in0.0 mm
01:20 PM 79.5°F26.4°C 59.8°F15.4°C 51% 5.8 mph SSW9.3 kmh SSW 10.4 mph16.7 kmh 29.58 in1001.7 mb - 0.00 in0.0 mm 0.00 in0.0 mm
01:10 PM 79.7°F26.5°C 60.0°F15.6°C 51% 10.4 mph SSW16.7 kmh SSW 13.8 mph22.2 kmh 29.58 in1001.7 mb - 0.00 in0.0 mm 0.00 in0.0 mm
01:00 PM 79.4°F26.3°C 61.8°F16.6°C 55% 8.1 mph SSW13.0 kmh SSW 19.6 mph31.5 kmh 29.59 in1002.0 mb - 0.00 in0.0 mm 0.00 in0.0 mm
12:50 PM 78.5°F25.8°C 61.0°F16.1°C 55% 8.1 mph SW13.0 kmh SW 11.5 mph18.5 kmh 29.60 in1002.4 mb - 0.00 in0.0 mm 0.00 in0.0 mm
12:40 PM 78.1°F25.6°C 61.6°F16.4°C 57% 8.1 mph SSW13.0 kmh SSW 13.8 mph22.2 kmh 29.61 in1002.7 mb - 0.00 in0.0 mm 0.00 in0.0 mm
12:30 PM 76.2°F24.6°C 60.8°F16.0°C 59% 8.1 mph SW13.0 kmh SW 16.1 mph25.9 kmh 29.62 in1003.0 mb - 0.00 in0.0 mm 0.00 in0.0 mm
12:20 PM 76.0°F24.4°C 61.1°F16.2°C 60% 6.9 mph S11.1 kmh S 11.5 mph18.5 kmh 29.62 in1003.0 mb - 0.00 in0.0 mm 0.00 in0.0 mm
12:10 PM 76.4°F24.7°C 61.0°F16.1°C 59% 9.2 mph SW14.8 kmh SW 16.1 mph25.9 kmh 29.63 in1003.4 mb - 0.00 in0.0 mm 0.00 in0.0 mm
12:00 PM 77.6°F25.3°C 62.1°F16.7°C 59% 4.6 mph SW7.4 kmh SW 11.5 mph18.5 kmh 29.63 in1003.4 mb - 0.00 in0.0 mm 0.00 in0.0 mm
11:50 AM 76.0°F24.4°C 62.0°F16.7°C 62% 9.2 mph SW14.8 kmh SW 11.5 mph18.5 kmh 29.65 in1004.1 mb - 0.00 in0.0 mm 0.00 in0.0 mm
11:40 AM 75.4°F24.1°C 62.3°F16.8°C 64% 6.9 mph SSW11.1 kmh SSW 10.4 mph16.7 kmh 29.64 in1003.7 mb - 0.00 in0.0 mm 0.00 in0.0 mm
11:30 AM 75.6°F24.2°C 61.7°F16.5°C 62% 8.1 mph SW13.0 kmh SW 13.8 mph22.2 kmh 29.65 in1004.1 mb - 0.00 in0.0 mm 0.00 in0.0 mm
11:20 AM 75.3°F24.1°C 62.3°F16.8°C 64% 9.2 mph S14.8 kmh S 16.1 mph25.9 kmh 29.66 in1004.4 mb - 0.00 in0.0 mm 0.00 in0.0 mm
11:10 AM 74.4°F23.6°C 62.3°F16.8°C 66% 6.9 mph S11.1 kmh S 10.4 mph16.7 kmh 29.67 in1004.7 mb - 0.00 in0.0 mm 0.00 in0.0 mm
11:00 AM 74.2°F23.4°C 62.5°F16.9°C 67% 8.1 mph S13.0 kmh S 17.3 mph27.8 kmh 29.67 in1004.7 mb - 0.00 in0.0 mm 0.00 in0.0 mm
10:50 AM 73.3°F22.9°C 62.5°F16.9°C 69% 8.1 mph S13.0 kmh S 11.5 mph18.5 kmh 29.67 in1004.7 mb - 0.00 in0.0 mm 0.00 in0.0 mm
10:40 AM 73.0°F22.8°C 62.7°F17.1°C 70% 9.2 mph S14.8 kmh S 17.3 mph27.8 kmh 29.69 in1005.4 mb - 0.00 in0.0 mm 0.00 in0.0 mm
10:30 AM 72.3°F22.4°C 62.3°F16.8°C 71% 5.8 mph SW9.3 kmh SW 10.4 mph16.7 kmh 29.69 in1005.4 mb - 0.00 in0.0 mm 0.00 in0.0 mm
10:20 AM 72.1°F22.3°C 63.0°F17.2°C 73% 9.2 mph SW14.8 kmh SW 17.3 mph27.8 kmh 29.70 in1005.8 mb - 0.00 in0.0 mm 0.00 in0.0 mm
10:10 AM 71.6°F22.0°C 63.2°F17.3°C 75% 6.9 mph S11.1 kmh S 12.7 mph20.4 kmh 29.70 in1005.8 mb - 0.00 in0.0 mm 0.00 in0.0 mm
10:00 AM 70.3°F21.3°C 62.7°F17.1°C 77% 8.1 mph SSW13.0 kmh SSW 12.7 mph20.4 kmh 29.70 in1005.8 mb - 0.00 in0.0 mm 0.00 in0.0 mm
09:50 AM 69.5°F20.8°C 62.7°F17.1°C 79% 10.4 mph S16.7 kmh S 19.6 mph31.5 kmh 29.71 in1006.1 mb - 0.00 in0.0 mm 0.00 in0.0 mm
09:40 AM 69.1°F20.6°C 62.7°F17.1°C 80% 10.4 mph S16.7 kmh S 11.5 mph18.5 kmh 29.71 in1006.1 mb - 0.00 in0.0 mm 0.00 in0.0 mm
09:30 AM 68.7°F20.4°C 62.6°F17.0°C 81% 6.9 mph SSW11.1 kmh SSW 12.7 mph20.4 kmh 29.71 in1006.1 mb - 0.00 in0.0 mm 0.00 in0.0 mm
09:20 AM 68.3°F20.2°C 62.6°F17.0°C 82% 6.9 mph SSW11.1 kmh SSW 12.7 mph20.4 kmh 29.71 in1006.1 mb - 0.00 in0.0 mm 0.00 in0.0 mm
09:10 AM 68.2°F20.1°C 63.2°F17.3°C 84% 10.4 mph SW16.7 kmh SW 18.4 mph29.6 kmh 29.72 in1006.4 mb - 0.00 in0.0 mm 0.00 in0.0 mm
09:00 AM 67.5°F19.7°C 63.5°F17.5°C 87% 8.1 mph S13.0 kmh S 10.4 mph16.7 kmh 29.72 in1006.4 mb - 0.00 in0.0 mm 0.00 in0.0 mm
08:50 AM 66.4°F19.1°C 63.3°F17.4°C 90% 5.8 mph S9.3 kmh S 8.1 mph13.0 kmh 29.72 in1006.4 mb - 0.00 in0.0 mm 0.00 in0.0 mm
08:40 AM 65.5°F18.6°C 62.8°F17.1°C 91% 5.8 mph SSW9.3 kmh SSW 9.2 mph14.8 kmh 29.72 in1006.4 mb - 0.00 in0.0 mm 0.00 in0.0 mm
08:30 AM 64.3°F17.9°C 61.9°F16.6°C 92% 4.6 mph SSW7.4 kmh SSW 6.9 mph11.1 kmh 29.72 in1006.4 mb - 0.00 in0.0 mm 0.00 in0.0 mm
08:20 AM 63.7°F17.6°C 61.3°F16.3°C 92% 3.5 mph S5.6 kmh S 11.5 mph18.5 kmh 29.73 in1006.8 mb - 0.00 in0.0 mm 0.00 in0.0 mm
08:10 AM 63.2°F17.3°C 60.8°F16.0°C 92% 2.3 mph S3.7 kmh S 6.9 mph11.1 kmh 29.73 in1006.8 mb - 0.00 in0.0 mm 0.00 in0.0 mm
08:00 AM 62.9°F17.2°C 60.5°F15.8°C 92% 4.6 mph SSE7.4 kmh SSE 9.2 mph14.8 kmh 29.74 in1007.1 mb - 0.00 in0.0 mm 0.00 in0.0 mm
07:50 AM 62.6°F17.0°C 60.3°F15.7°C 92% 3.5 mph S5.6 kmh S 9.2 mph14.8 kmh 29.74 in1007.1 mb - 0.00 in0.0 mm 0.00 in0.0 mm
07:40 AM 62.5°F16.9°C 60.1°F15.6°C 92% 5.8 mph S9.3 kmh S 11.5 mph18.5 kmh 29.75 in1007.5 mb - 0.00 in0.0 mm 0.00 in0.0 mm
07:30 AM 62.4°F16.9°C 60.4°F15.8°C 93% 3.5 mph S5.6 kmh S 4.6 mph7.4 kmh 29.75 in1007.5 mb - 0.00 in0.0 mm 0.00 in0.0 mm
07:20 AM 62.3°F16.8°C 60.2°F15.7°C 93% 5.8 mph S9.3 kmh S 11.5 mph18.5 kmh 29.75 in1007.5 mb - 0.00 in0.0 mm 0.00 in0.0 mm
07:10 AM 62.1°F16.7°C 60.1°F15.6°C 93% 6.9 mph S11.1 kmh S 11.5 mph18.5 kmh 29.76 in1007.8 mb - 0.00 in0.0 mm 0.00 in0.0 mm
07:00 AM 61.8°F16.6°C 59.8°F15.4°C 93% 5.8 mph S9.3 kmh S 6.9 mph11.1 kmh 29.76 in1007.8 mb - 0.00 in0.0 mm 0.00 in0.0 mm
06:50 AM 61.5°F16.4°C 59.5°F15.3°C 93% 6.9 mph S11.1 kmh S 10.4 mph16.7 kmh 29.76 in1007.8 mb - 0.00 in0.0 mm 0.00 in0.0 mm
06:40 AM 61.2°F16.2°C 59.2°F15.1°C 93% 4.6 mph SSE7.4 kmh SSE 10.4 mph16.7 kmh 29.77 in1008.1 mb - 0.00 in0.0 mm 0.00 in0.0 mm
06:30 AM 60.9°F16.1°C 58.9°F14.9°C 93% 6.9 mph S11.1 kmh S 8.1 mph13.0 kmh 29.77 in1008.1 mb - 0.00 in0.0 mm 0.00 in0.0 mm
06:20 AM 60.7°F15.9°C 58.6°F14.8°C 93% 5.8 mph SSW9.3 kmh SSW 11.5 mph18.5 kmh 29.77 in1008.1 mb - 0.00 in0.0 mm 0.00 in0.0 mm
06:10 AM 60.4°F15.8°C 58.4°F14.7°C 93% 5.8 mph S9.3 kmh S 9.2 mph14.8 kmh 29.77 in1008.1 mb - 0.00 in0.0 mm 0.00 in0.0 mm
06:00 AM 60.1°F15.6°C 58.1°F14.5°C 93% 6.9 mph S11.1 kmh S 11.5 mph18.5 kmh 29.77 in1008.1 mb - 0.00 in0.0 mm 0.00 in0.0 mm
05:50 AM 59.9°F15.5°C 57.9°F14.4°C 93% 8.1 mph S13.0 kmh S 11.5 mph18.5 kmh 29.77 in1008.1 mb - 0.00 in0.0 mm 0.00 in0.0 mm
05:40 AM 59.7°F15.4°C 57.7°F14.3°C 93% 8.1 mph S13.0 kmh S 9.2 mph14.8 kmh 29.78 in1008.5 mb - 0.00 in0.0 mm 0.00 in0.0 mm
05:30 AM 59.5°F15.3°C 57.5°F14.2°C 93% 8.1 mph SSE13.0 kmh SSE 16.1 mph25.9 kmh 29.78 in1008.5 mb - 0.00 in0.0 mm 0.00 in0.0 mm
05:20 AM 59.4°F15.2°C 57.3°F14.1°C 93% 9.2 mph S14.8 kmh S 9.2 mph14.8 kmh 29.79 in1008.8 mb - 0.00 in0.0 mm 0.00 in0.0 mm
05:10 AM 59.4°F15.2°C 57.1°F13.9°C 92% 9.2 mph SSE14.8 kmh SSE 12.7 mph20.4 kmh 29.79 in1008.8 mb - 0.00 in0.0 mm 0.00 in0.0 mm
05:00 AM 59.2°F15.1°C 56.9°F13.8°C 92% 8.1 mph SSE13.0 kmh SSE 15.0 mph24.1 kmh 29.79 in1008.8 mb - 0.00 in0.0 mm 0.00 in0.0 mm
04:50 AM 59.1°F15.1°C 56.7°F13.7°C 92% 6.9 mph S11.1 kmh S 8.1 mph13.0 kmh 29.80 in1009.1 mb - 0.00 in0.0 mm 0.00 in0.0 mm
04:40 AM 59.0°F15.0°C 56.7°F13.7°C 92% 6.9 mph S11.1 kmh S 11.5 mph18.5 kmh 29.80 in1009.1 mb - 0.00 in0.0 mm 0.00 in0.0 mm
04:30 AM 59.0°F15.0°C 56.7°F13.7°C 92% 5.8 mph SE9.3 kmh SE 13.8 mph22.2 kmh 29.80 in1009.1 mb - 0.00 in0.0 mm 0.00 in0.0 mm
04:20 AM 59.0°F15.0°C 56.7°F13.7°C 92% 9.2 mph SE14.8 kmh SE 17.3 mph27.8 kmh 29.80 in1009.1 mb - 0.00 in0.0 mm 0.00 in0.0 mm
04:10 AM 59.0°F15.0°C 56.6°F13.7°C 92% 5.8 mph SSE9.3 kmh SSE 13.8 mph22.2 kmh 29.81 in1009.5 mb - 0.00 in0.0 mm 0.00 in0.0 mm
04:00 AM 58.9°F14.9°C 56.3°F13.5°C 91% 9.2 mph SSE14.8 kmh SSE 13.8 mph22.2 kmh 29.81 in1009.5 mb - 0.00 in0.0 mm 0.00 in0.0 mm
03:50 AM 58.8°F14.9°C 56.2°F13.4°C 91% 4.6 mph SE7.4 kmh SE 5.8 mph9.3 kmh 29.82 in1009.8 mb - 0.00 in0.0 mm 0.00 in0.0 mm
03:40 AM 58.7°F14.8°C 56.1°F13.4°C 91% 8.1 mph SSE13.0 kmh SSE 11.5 mph18.5 kmh 29.83 in1010.2 mb - 0.00 in0.0 mm 0.00 in0.0 mm
03:30 AM 58.9°F14.9°C 56.0°F13.3°C 90% 6.9 mph SSE11.1 kmh SSE 9.2 mph14.8 kmh 29.83 in1010.2 mb - 0.00 in0.0 mm 0.00 in0.0 mm
03:20 AM 58.9°F14.9°C 56.0°F13.3°C 90% 6.9 mph S11.1 kmh S 12.7 mph20.4 kmh 29.83 in1010.2 mb - 0.00 in0.0 mm 0.00 in0.0 mm
03:10 AM 58.9°F14.9°C 56.0°F13.3°C 90% 9.2 mph SSE14.8 kmh SSE 11.5 mph18.5 kmh 29.84 in1010.5 mb - 0.00 in0.0 mm 0.00 in0.0 mm
03:00 AM 58.9°F14.9°C 55.7°F13.2°C 89% 9.2 mph S14.8 kmh S 10.4 mph16.7 kmh 29.85 in1010.8 mb - 0.00 in0.0 mm 0.00 in0.0 mm
02:50 AM 58.9°F14.9°C 55.7°F13.2°C 89% 8.1 mph SSE13.0 kmh SSE 11.5 mph18.5 kmh 29.86 in1011.2 mb - 0.00 in0.0 mm 0.00 in0.0 mm
02:40 AM 58.8°F14.9°C 55.6°F13.1°C 89% 8.1 mph SSE13.0 kmh SSE 11.5 mph18.5 kmh 29.86 in1011.2 mb - 0.00 in0.0 mm 0.00 in0.0 mm
02:30 AM 58.8°F14.9°C 55.3°F12.9°C 88% 8.1 mph SSE13.0 kmh SSE 9.2 mph14.8 kmh 29.87 in1011.5 mb - 0.00 in0.0 mm 0.00 in0.0 mm
02:20 AM 58.7°F14.8°C 55.2°F12.9°C 88% 3.5 mph SE5.6 kmh SE 4.6 mph7.4 kmh 29.88 in1011.9 mb - 0.00 in0.0 mm 0.00 in0.0 mm
02:10 AM 58.7°F14.8°C 54.8°F12.7°C 87% 6.9 mph SE11.1 kmh SE 13.8 mph22.2 kmh 29.88 in1011.9 mb - 0.00 in0.0 mm 0.00 in0.0 mm
02:00 AM 58.7°F14.8°C 54.8°F12.7°C 87% 6.9 mph SSE11.1 kmh SSE 15.0 mph24.1 kmh 29.88 in1011.9 mb - 0.00 in0.0 mm 0.00 in0.0 mm
01:50 AM 58.7°F14.8°C 54.5°F12.5°C 86% 5.8 mph SE9.3 kmh SE 8.1 mph13.0 kmh 29.89 in1012.2 mb - 0.00 in0.0 mm 0.00 in0.0 mm
01:40 AM 58.8°F14.9°C 54.6°F12.6°C 86% 8.1 mph SSE13.0 kmh SSE 11.5 mph18.5 kmh 29.89 in1012.2 mb - 0.00 in0.0 mm 0.00 in0.0 mm
01:30 AM 58.9°F14.9°C 54.7°F12.6°C 86% 6.9 mph SE11.1 kmh SE 12.7 mph20.4 kmh 29.89 in1012.2 mb - 0.00 in0.0 mm 0.00 in0.0 mm
01:20 AM 59.0°F15.0°C 54.5°F12.5°C 85% 5.8 mph SSE9.3 kmh SSE 11.5 mph18.5 kmh 29.89 in1012.2 mb - 0.00 in0.0 mm 0.00 in0.0 mm
01:10 AM 59.1°F15.1°C 54.6°F12.6°C 85% 6.9 mph SSE11.1 kmh SSE 11.5 mph18.5 kmh 29.90 in1012.5 mb - 0.00 in0.0 mm 0.00 in0.0 mm
01:00 AM 59.2°F15.1°C 54.7°F12.6°C 85% 4.6 mph S7.4 kmh S 8.1 mph13.0 kmh 29.91 in1012.9 mb - 0.00 in0.0 mm 0.00 in0.0 mm
12:50 AM 59.3°F15.2°C 54.8°F12.7°C 85% 5.8 mph SSE9.3 kmh SSE 10.4 mph16.7 kmh 29.92 in1013.2 mb - 0.00 in0.0 mm 0.00 in0.0 mm
12:40 AM 59.4°F15.2°C 54.9°F12.7°C 85% 5.8 mph SSE9.3 kmh SSE 6.9 mph11.1 kmh 29.92 in1013.2 mb - 0.00 in0.0 mm 0.00 in0.0 mm
12:30 AM 59.5°F15.3°C 55.0°F12.8°C 85% 8.1 mph SSE13.0 kmh SSE 15.0 mph24.1 kmh 29.92 in1013.2 mb - 0.00 in0.0 mm 0.00 in0.0 mm
12:20 AM 59.6°F15.3°C 55.1°F12.8°C 85% 6.9 mph S11.1 kmh S 9.2 mph14.8 kmh 29.92 in1013.2 mb - 0.00 in0.0 mm 0.00 in0.0 mm
12:10 AM 59.6°F15.3°C 55.1°F12.8°C 85% 4.6 mph SSE7.4 kmh SSE 6.9 mph11.1 kmh 29.93 in1013.5 mb - 0.00 in0.0 mm 0.00 in0.0 mm
12:00 AM 59.5°F15.3°C 55.0°F12.8°C 85% 5.8 mph SSE9.3 kmh SSE 9.2 mph14.8 kmh 29.92 in1013.2 mb - 0.00 in0.0 mm 0.00 in0.0 mm